Terminal Aerodrome Forecast
Issued by NWS

Home | Current Version | Previous Version | Text Only | Print | Product List | Glossary On
Versions: 1 2 3 4 5 6 7 8 9 10 11 12 13 14 15 16 17 18 19 20 21 22 23 24 25 26 27 28 29 30 31 32 33 34 35 36 37 38 39 40 41 42
000
FTUS45 KBOU 170156 AAA
TAFBJC
TAF AMD
KBJC 170156Z 1702/1724 VRB04KT P6SM FEW080 SCT120
     FM170300 09011KT P6SM SCT120
     FM170500 VRB05KT P6SM FEW120
     FM170700 25006KT P6SM FEW220
     FM171700 03005KT P6SM FEW220
     FM172200 08005KT P6SM SCT100=

USA.gov is the U.S. government's official web portal to all federal, state and local government web resources and services.